• 1 / 0
  • 175
  • 1964
Active Status Co-op
Check Drive Time
See how long it takes to get to work. Change


Location, Location! Fantastic Junior 1 with spectacular view from 23rd Floor at the Kennedy House. This apartment has an open layout with beautifully renovated kitchen and granite counter top, renovated bathroom, hardwood floor throughout, plenty of closet spaces, 24 Hr doorman, gym, seasonal pool and storage. Parking space immediately. Minutes to E&F Express Subway and buses, Austin St with all restaurants and shops. Central A/C-All utilities are included.

Address: 110-11 Queens Blvd
State: NY
City: Forest Hills
County: Queens
Zip Code: 11375
MLS#: 3133678
MLS Area:
Taxes: 0.00 $0

Price History

Date Price Event Change MLS#:
5/31/2019 $589,000 List Price 103.81% 3133712
5/31/2019 $289,000 List Price -49.74% 3133678
5/28/2019 $575,000 List Price -23.23% 3132608
5/24/2019 $749,000 List Price -13.81% 3079555
5/10/2019 $869,000 List Price 181.23% 3127481
4/23/2019 $309,000 List Price -57.38% 3079041
4/17/2019 $725,000 List Price -1.89% 3115890
4/15/2019 $739,000 List Price -1.34% 3119315
4/4/2019 $749,000 List Price 8.87% 3115890
4/1/2019 $688,000 List Price 72.43% 3114717
3/13/2019 $399,000 List Price -19.39% 3108879
3/11/2019 $495,000 List Price -4.44% 3108097
2/1/2019 $518,000 List Price 79.24% 3097930
2/1/2019 $289,000 List Price -48.3% 3097919
11/27/2018 $559,000 List Price 115.83% 3083089
11/13/2018 $259,000 List Price -61.86% 3080723
11/13/2018 $679,000 List Price 112.19% 3080693
11/11/2018 $320,000 List Price -54.15% 3079041
11/8/2018 $698,000 List Price 68.19% 3079555
10/31/2018 $415,000 List Price -5.25% 3077431
10/25/2018 $438,000 List Price -0.23% 3076169
10/4/2018 $439,000 List Price -39.02% 3070241
10/1/2018 $719,900 List Price 72.22% 3069624
9/6/2018 $418,000 List Price 8.57% 2932899
8/21/2018 $385,000 List Price -1.03% 2963787
8/8/2018 $389,000 List Price -12.98% 3002650
8/3/2018 $447,000 List Price -2.61% 3044140
6/29/2018 $459,000 List Price 3.15% 3044140
6/26/2018 $445,000 List Price -20.39% 3043012
6/4/2018 $559,000 List Price 3036195
5/8/2018 $559,000 List Price 74.69% 3027891
5/1/2018 $320,000 List Price -1.54% 2988173
4/5/2018 $325,000 List Price -1.52% 2988173
3/26/2018 $330,000 List Price 37.5% 2988173
3/13/2018 $240,000 List Price -10.78% 2983126
3/5/2018 $269,000 List Price -67.55% 3009169
2/25/2018 $829,000 List Price 62.55% 2984044
2/12/2018 $509,999 List Price 0.99% 2982666
2/12/2018 $505,000 List Price 26.57% 2981502
2/7/2018 $399,000 List Price 19.1% 3002650
2/1/2018 $335,000 List Price -50.37% 2988173
1/16/2018 $675,000 List Price 2996822
12/21/2017 $675,000 List Price 95.65% 2992473
12/18/2017 $345,000 List Price -63.1% 2988173
12/12/2017 $935,000 List Price 247.58% 2973685
11/30/2017 $269,000 List Price -59.18% 2983126
11/27/2017 $659,000 List Price 14.61% 2938544
11/17/2017 $575,000 List Price 35.29% 2986389
11/15/2017 $425,000 List Price 9.25% 2932899
11/15/2017 $389,000 List Price -54.71% 2985949
11/8/2017 $859,000 List Price 50.97% 2984044
11/7/2017 $569,000 List Price 9.63% 2959350
11/1/2017 $519,000 List Price 2982666
10/27/2017 $519,000 List Price 25.06% 2981502
10/20/2017 $415,000 List Price 18.57% 2975277
9/10/2017 $350,000 List Price 2963787

Interior Details

  • Appliances:N
  • Features:
  • Furnished:
  • Floor Type:
  • Cooling:Cac
  • Heating:Steam
  • Other Rooms:3.0

Rooms

  • Dining RoomOther

Exterior Details

  • Home Construction
  • Features:
  • Exposure:
  • Roof Type:
  • Garage Spaces:
  • Pool:No
  • Utilities:
  • Lot Description:
  • Parking:Y
  • View:N

Community Details

Rental Information

  • Rental Income:$0
  • Rental Number:0

Similar Properties

Property Information Last Updated: 6/4/2019 11:13:10 AM
Property Listed By Douglas Elliman Real Estate


The source of the display data is either the property owner or public record provided by non-government third parties. It is not guaranteed. Copyright 2017. Multiple Listing Service of Long Island, Inc. All Rights Reserved.

>